createdAt,value
2017-02-13T00:00:01.918Z,938.78
2017-02-13T00:00:06.657Z,938.8
2017-02-13T00:00:11.072Z,938.76
2017-02-13T00:00:15.487Z,938.79
2017-02-13T00:00:20.198Z,938.8
2017-02-13T00:00:24.901Z,938.76
2017-02-13T00:00:29.608Z,938.78
2017-02-13T00:00:34.321Z,938.8
2017-02-13T00:00:39.010Z,938.79
2017-02-13T00:00:43.702Z,938.76
2017-02-13T00:00:48.434Z,938.77
2017-02-13T00:00:53.153Z,938.8
2017-02-13T00:00:57.901Z,938.81
2017-02-13T00:01:02.662Z,938.77
2017-02-13T00:01:07.359Z,938.79
2017-02-13T00:01:11.952Z,938.81
2017-02-13T00:01:16.540Z,938.75
2017-02-13T00:01:21.086Z,938.78
2017-02-13T00:01:25.832Z,938.79
2017-02-13T00:01:30.548Z,938.79
2017-02-13T00:01:35.088Z,938.83
2017-02-13T00:01:39.789Z,938.74
2017-02-13T00:01:44.498Z,938.79
2017-02-13T00:01:49.226Z,938.74
2017-02-13T00:01:53.940Z,938.78
2017-02-13T00:01:58.629Z,938.76
2017-02-13T00:02:03.353Z,938.79
2017-02-13T00:02:07.778Z,938.77
2017-02-13T00:02:12.324Z,938.78
2017-02-13T00:02:16.887Z,938.78
2017-02-13T00:02:21.602Z,938.77
2017-02-13T00:02:26.180Z,938.77
2017-02-13T00:02:30.889Z,938.78
2017-02-13T00:02:35.474Z,938.78
2017-02-13T00:02:40.204Z,938.78
2017-02-13T00:02:44.947Z,938.77
2017-02-13T00:02:49.649Z,938.75
2017-02-13T00:02:54.373Z,938.77
2017-02-13T00:02:59.079Z,938.82
2017-02-13T00:03:03.775Z,938.79
2017-02-13T00:03:08.458Z,938.82
2017-02-13T00:03:13.007Z,938.77
2017-02-13T00:03:17.710Z,938.76
2017-02-13T00:03:22.455Z,938.8
2017-02-13T00:03:27.154Z,938.79
2017-02-13T00:03:31.742Z,938.8
2017-02-13T00:03:36.430Z,938.73
2017-02-13T00:03:41.454Z,938.79
2017-02-13T00:03:46.190Z,938.78
2017-02-13T00:03:50.749Z,938.79
2017-02-13T00:03:55.487Z,938.74
2017-02-13T00:04:00.229Z,938.74
2017-02-13T00:04:04.931Z,938.79
2017-02-13T00:04:09.187Z,938.77
2017-02-13T00:04:13.761Z,938.8
2017-02-13T00:04:18.328Z,938.77
2017-02-13T00:04:23.026Z,938.81
2017-02-13T00:04:27.719Z,938.81
2017-02-13T00:04:32.417Z,938.8
2017-02-13T00:04:36.987Z,938.78
2017-02-13T00:04:41.539Z,938.82
2017-02-13T00:04:46.068Z,938.79
2017-02-13T00:04:50.766Z,938.79
2017-02-13T00:04:55.514Z,938.77
2017-02-13T00:05:00.238Z,938.8
2017-02-13T00:05:04.823Z,938.79
2017-02-13T00:05:09.521Z,938.79
2017-02-13T00:05:14.054Z,938.79
2017-02-13T00:05:18.621Z,938.79
2017-02-13T00:05:23.329Z,938.82
2017-02-13T00:05:28.036Z,938.8
2017-02-13T00:05:32.583Z,938.79
2017-02-13T00:05:37.299Z,938.79
2017-02-13T00:05:41.999Z,938.81
2017-02-13T00:05:46.702Z,938.79
2017-02-13T00:05:51.486Z,938.76
2017-02-13T00:05:56.196Z,938.8
2017-02-13T00:06:00.911Z,938.78
2017-02-13T00:06:05.750Z,938.79
2017-02-13T00:06:10.191Z,938.76
2017-02-13T00:06:14.648Z,938.76
2017-02-13T00:06:19.331Z,938.75
2017-02-13T00:06:24.026Z,938.8
2017-02-13T00:06:28.742Z,938.81
2017-02-13T00:06:33.335Z,938.78
2017-02-13T00:06:37.924Z,938.78
2017-02-13T00:06:42.633Z,938.78
2017-02-13T00:06:47.337Z,938.78
2017-02-13T00:06:52.059Z,938.81
2017-02-13T00:06:56.666Z,938.77
2017-02-13T00:07:01.354Z,938.78
2017-02-13T00:07:05.794Z,938.78
2017-02-13T00:07:10.394Z,938.79
2017-02-13T00:07:14.977Z,938.81
2017-02-13T00:07:19.675Z,938.76
2017-02-13T00:07:24.394Z,938.75
2017-02-13T00:07:28.943Z,938.78
2017-02-13T00:07:33.525Z,938.78
2017-02-13T00:07:38.083Z,938.8
2017-02-13T00:07:42.796Z,938.79
2017-02-13T00:07:47.395Z,938.77
2017-02-13T00:07:52.103Z,938.78
2017-02-13T00:07:56.806Z,938.77
2017-02-13T00:08:01.530Z,938.8
2017-02-13T00:08:06.259Z,938.8
2017-02-13T00:08:10.666Z,938.73
2017-02-13T00:08:15.089Z,938.73
2017-02-13T00:08:19.807Z,938.78
2017-02-13T00:08:24.376Z,938.74
2017-02-13T00:08:29.103Z,938.8
2017-02-13T00:08:33.890Z,938.81
2017-02-13T00:08:38.604Z,938.77
2017-02-13T00:08:43.589Z,938.8
2017-02-13T00:08:48.343Z,938.79
2017-02-13T00:08:53.132Z,938.77
2017-02-13T00:08:57.865Z,938.8
2017-02-13T00:09:02.870Z,938.79
2017-02-13T00:09:07.593Z,938.78
2017-02-13T00:09:12.281Z,938.79
2017-02-13T00:09:16.699Z,938.79
2017-02-13T00:09:21.253Z,938.79
2017-02-13T00:09:25.966Z,938.78
2017-02-13T00:09:30.698Z,938.8
2017-02-13T00:09:35.433Z,938.78
2017-02-13T00:09:40.123Z,938.78
2017-02-13T00:09:44.716Z,938.8
2017-02-13T00:09:49.419Z,938.8
2017-02-13T00:09:54.111Z,938.78
2017-02-13T00:09:58.839Z,938.79
2017-02-13T00:10:03.607Z,938.8
2017-02-13T00:10:08.172Z,938.74
2017-02-13T00:10:12.878Z,938.8
2017-02-13T00:10:17.589Z,938.77
2017-02-13T00:10:22.313Z,938.74
2017-02-13T00:10:27.024Z,938.75
2017-02-13T00:10:31.706Z,938.8
2017-02-13T00:10:36.408Z,938.79
2017-02-13T00:10:41.147Z,938.77
2017-02-13T00:10:45.714Z,938.77
2017-02-13T00:10:50.414Z,938.72
2017-02-13T00:10:55.121Z,938.79
2017-02-13T00:10:59.827Z,938.8
2017-02-13T00:11:04.528Z,938.74
2017-02-13T00:11:09.129Z,938.73
2017-02-13T00:11:13.677Z,938.77
2017-02-13T00:11:18.262Z,938.79
2017-02-13T00:11:22.972Z,938.78
2017-02-13T00:11:27.677Z,938.76
2017-02-13T00:11:32.381Z,938.77
2017-02-13T00:11:37.121Z,938.8
2017-02-13T00:11:41.820Z,938.79
2017-02-13T00:11:46.574Z,938.79
2017-02-13T00:11:51.124Z,938.79
2017-02-13T00:11:55.693Z,938.77
2017-02-13T00:12:00.391Z,938.73
2017-02-13T00:12:04.854Z,938.79
2017-02-13T00:12:09.401Z,938.74
2017-02-13T00:12:13.979Z,938.79
2017-02-13T00:12:18.688Z,938.76
2017-02-13T00:12:23.242Z,938.76
2017-02-13T00:12:27.966Z,938.79
2017-02-13T00:12:32.667Z,938.78
2017-02-13T00:12:37.356Z,938.77
2017-02-13T00:12:42.087Z,938.78
2017-02-13T00:12:46.799Z,938.75
2017-02-13T00:12:51.488Z,938.79
2017-02-13T00:12:56.178Z,938.78
2017-02-13T00:13:00.872Z,938.75
2017-02-13T00:13:05.431Z,938.76
2017-02-13T00:13:09.842Z,938.74
2017-02-13T00:13:14.397Z,938.78
2017-02-13T00:13:19.094Z,938.76
2017-02-13T00:13:23.786Z,938.78
2017-02-13T00:13:28.488Z,938.76
2017-02-13T00:13:33.190Z,938.75
2017-02-13T00:13:37.878Z,938.78
2017-02-13T00:13:42.752Z,938.72
2017-02-13T00:13:47.459Z,938.75
2017-02-13T00:13:52.193Z,938.76
2017-02-13T00:13:56.878Z,938.75
2017-02-13T00:14:01.428Z,938.73
2017-02-13T00:14:06.145Z,938.76
2017-02-13T00:14:10.700Z,938.74
2017-02-13T00:14:15.198Z,938.77
2017-02-13T00:14:19.902Z,938.74
2017-02-13T00:14:24.468Z,938.75
2017-02-13T00:14:29.153Z,938.75
2017-02-13T00:14:33.861Z,938.77
2017-02-13T00:14:38.563Z,938.78
2017-02-13T00:14:43.096Z,938.79
2017-02-13T00:14:47.784Z,938.72
2017-02-13T00:14:52.490Z,938.78
2017-02-13T00:14:57.205Z,938.77
2017-02-13T00:15:01.887Z,938.79
2017-02-13T00:15:06.618Z,938.72
2017-02-13T00:15:11.338Z,938.75
2017-02-13T00:15:15.923Z,938.76
2017-02-13T00:15:20.502Z,938.74
2017-02-13T00:15:25.225Z,938.68
2017-02-13T00:15:29.942Z,938.7
2017-02-13T00:15:34.668Z,938.76
2017-02-13T00:15:39.379Z,938.73
2017-02-13T00:15:44.081Z,938.75
2017-02-13T00:15:48.792Z,938.76
2017-02-13T00:15:53.592Z,938.76
2017-02-13T00:15:58.294Z,938.76
2017-02-13T00:16:02.866Z,938.76
2017-02-13T00:16:07.569Z,938.76
2017-02-13T00:16:12.309Z,938.78
2017-02-13T00:16:16.877Z,938.74
2017-02-13T00:16:21.612Z,938.78
2017-02-13T00:16:26.160Z,938.78
2017-02-13T00:16:30.892Z,938.77
2017-02-13T00:16:35.495Z,938.76
2017-02-13T00:16:40.192Z,938.75
2017-02-13T00:16:44.875Z,938.7
2017-02-13T00:16:49.448Z,938.7
2017-02-13T00:16:54.172Z,938.73
2017-02-13T00:16:58.866Z,938.75
2017-02-13T00:17:03.742Z,938.78
2017-02-13T00:17:08.298Z,938.75
2017-02-13T00:17:12.998Z,938.76
2017-02-13T00:17:17.788Z,938.73
2017-02-13T00:17:22.498Z,938.74
2017-02-13T00:17:27.069Z,938.73
2017-02-13T00:17:31.778Z,938.76
2017-02-13T00:17:36.334Z,938.73
2017-02-13T00:17:41.064Z,938.71
2017-02-13T00:17:45.771Z,938.74
2017-02-13T00:17:50.465Z,938.78
2017-02-13T00:17:55.196Z,938.76
2017-02-13T00:17:59.888Z,938.73
2017-02-13T00:18:04.584Z,938.75
2017-02-13T00:18:09.176Z,938.72
2017-02-13T00:18:13.737Z,938.7
2017-02-13T00:18:18.282Z,938.77
2017-02-13T00:18:23.003Z,938.75
2017-02-13T00:18:27.564Z,938.75
2017-02-13T00:18:32.289Z,938.74
2017-02-13T00:18:37.001Z,938.76
2017-02-13T00:18:41.713Z,938.74
2017-02-13T00:18:46.704Z,938.72
2017-02-13T00:18:51.054Z,938.77
2017-02-13T00:18:55.782Z,938.71
2017-02-13T00:19:00.525Z,938.75
2017-02-13T00:19:05.243Z,938.74
2017-02-13T00:19:09.643Z,938.77
2017-02-13T00:19:14.352Z,938.72
2017-02-13T00:19:18.918Z,938.7
2017-02-13T00:19:23.488Z,938.71
2017-02-13T00:19:28.190Z,938.74
2017-02-13T00:19:32.908Z,938.72
2017-02-13T00:19:37.602Z,938.73
2017-02-13T00:19:42.339Z,938.74
2017-02-13T00:19:47.065Z,938.76
2017-02-13T00:19:51.786Z,938.75
2017-02-13T00:19:56.517Z,938.77
2017-02-13T00:20:01.217Z,938.76
2017-02-13T00:20:05.951Z,938.73
2017-02-13T00:20:10.367Z,938.73
2017-02-13T00:20:14.797Z,938.73
2017-02-13T00:20:19.499Z,938.73
2017-02-13T00:20:24.079Z,938.76
2017-02-13T00:20:28.797Z,938.77
2017-02-13T00:20:33.353Z,938.74
2017-02-13T00:20:38.066Z,938.75
2017-02-13T00:20:42.640Z,938.76
2017-02-13T00:20:47.373Z,938.75
2017-02-13T00:20:51.914Z,938.75
2017-02-13T00:20:56.618Z,938.77
2017-02-13T00:21:01.337Z,938.76
2017-02-13T00:21:06.261Z,938.71
2017-02-13T00:21:10.663Z,938.74
2017-02-13T00:21:15.387Z,938.75
2017-02-13T00:21:19.957Z,938.72
2017-02-13T00:21:24.689Z,938.7
2017-02-13T00:21:29.389Z,938.74
2017-02-13T00:21:34.130Z,938.74
2017-02-13T00:21:38.871Z,938.75
2017-02-13T00:21:43.584Z,938.78
2017-02-13T00:21:48.136Z,938.74
2017-02-13T00:21:52.839Z,938.76
2017-02-13T00:21:57.347Z,938.77
2017-02-13T00:22:02.070Z,938.73
2017-02-13T00:22:06.789Z,938.76
2017-02-13T00:22:11.339Z,938.75
2017-02-13T00:22:15.888Z,938.73
2017-02-13T00:22:20.582Z,938.75
2017-02-13T00:22:25.148Z,938.68
2017-02-13T00:22:29.849Z,938.75
2017-02-13T00:22:34.531Z,938.79
2017-02-13T00:22:39.266Z,938.76
2017-02-13T00:22:43.994Z,938.77
2017-02-13T00:22:48.557Z,938.75
2017-02-13T00:22:52.995Z,938.78
2017-02-13T00:22:57.708Z,938.72
2017-02-13T00:23:02.579Z,938.74
2017-02-13T00:23:07.285Z,938.74
2017-02-13T00:23:11.983Z,938.76
2017-02-13T00:23:16.522Z,938.7
2017-02-13T00:23:21.231Z,938.75
2017-02-13T00:23:25.944Z,938.72
2017-02-13T00:23:30.511Z,938.77
2017-02-13T00:23:35.220Z,938.72
2017-02-13T00:23:39.919Z,938.73
2017-02-13T00:23:44.870Z,938.72
2017-02-13T00:23:49.548Z,938.73
2017-02-13T00:23:54.100Z,938.73
2017-02-13T00:23:58.831Z,938.74
2017-02-13T00:24:03.800Z,938.76
2017-02-13T00:24:08.225Z,938.73
2017-02-13T00:24:12.781Z,938.74
2017-02-13T00:24:17.474Z,938.73
2017-02-13T00:24:22.025Z,938.77
2017-02-13T00:24:26.705Z,938.74
2017-02-13T00:24:31.446Z,938.75
2017-02-13T00:24:36.141Z,938.74
2017-02-13T00:24:40.873Z,938.76
2017-02-13T00:24:45.577Z,938.77
2017-02-13T00:24:50.129Z,938.76
2017-02-13T00:24:54.828Z,938.74
2017-02-13T00:24:59.545Z,938.76
2017-02-13T00:25:04.259Z,938.75
2017-02-13T00:25:08.963Z,938.74
2017-02-13T00:25:13.682Z,938.68
2017-02-13T00:25:18.410Z,938.73
2017-02-13T00:25:22.988Z,938.75
2017-02-13T00:25:27.803Z,938.73
2017-02-13T00:25:32.504Z,938.75
2017-02-13T00:25:37.219Z,938.76
2017-02-13T00:25:41.964Z,938.67
2017-02-13T00:25:46.656Z,938.72
2017-02-13T00:25:51.384Z,938.73
2017-02-13T00:25:55.938Z,938.74
2017-02-13T00:26:00.627Z,938.75
2017-02-13T00:26:05.257Z,938.7
2017-02-13T00:26:09.676Z,938.7
2017-02-13T00:26:14.125Z,938.74
2017-02-13T00:26:18.839Z,938.74
2017-02-13T00:26:23.612Z,938.73
2017-02-13T00:26:28.318Z,938.73
2017-02-13T00:26:33.038Z,938.76
2017-02-13T00:26:37.742Z,938.72
2017-02-13T00:26:42.459Z,938.75
2017-02-13T00:26:47.162Z,938.72
2017-02-13T00:26:51.855Z,938.73
2017-02-13T00:26:56.439Z,938.73
2017-02-13T00:27:01.207Z,938.73
2017-02-13T00:27:06.038Z,938.76
2017-02-13T00:27:10.609Z,938.72
2017-02-13T00:27:15.313Z,938.67
2017-02-13T00:27:20.086Z,938.74
2017-02-13T00:27:24.659Z,938.71
2017-02-13T00:27:29.398Z,938.76
2017-02-13T00:27:34.101Z,938.74
2017-02-13T00:27:38.824Z,938.71
2017-02-13T00:27:43.523Z,938.72
2017-02-13T00:27:48.239Z,938.68
2017-02-13T00:27:52.934Z,938.75
2017-02-13T00:27:57.649Z,938.74
2017-02-13T00:28:02.230Z,938.71
2017-02-13T00:28:06.940Z,938.74
2017-02-13T00:28:11.654Z,938.72
2017-02-13T00:28:16.205Z,938.72
2017-02-13T00:28:20.963Z,938.71
2017-02-13T00:28:25.688Z,938.7
2017-02-13T00:28:30.411Z,938.67
2017-02-13T00:28:34.967Z,938.75
2017-02-13T00:28:39.720Z,938.72
2017-02-13T00:28:44.421Z,938.66
2017-02-13T00:28:49.442Z,938.72
2017-02-13T00:28:54.155Z,938.71
2017-02-13T00:28:58.865Z,938.73
2017-02-13T00:29:03.582Z,938.75
2017-02-13T00:29:08.146Z,938.73
2017-02-13T00:29:12.859Z,938.73
2017-02-13T00:29:17.437Z,938.74
2017-02-13T00:29:21.816Z,938.74
2017-02-13T00:29:26.517Z,938.74
2017-02-13T00:29:31.067Z,938.7
2017-02-13T00:29:35.628Z,938.76
2017-02-13T00:29:40.369Z,938.72
2017-02-13T00:29:44.918Z,938.72
2017-02-13T00:29:49.646Z,938.72
2017-02-13T00:29:54.342Z,938.73
2017-02-13T00:29:59.079Z,938.74
2017-02-13T00:30:03.876Z,938.71
2017-02-13T00:30:08.597Z,938.75
2017-02-13T00:30:13.036Z,938.71
2017-02-13T00:30:17.749Z,938.69
2017-02-13T00:30:22.319Z,938.69
2017-02-13T00:30:27.056Z,938.74
2017-02-13T00:30:31.760Z,938.73
2017-02-13T00:30:36.469Z,938.71
2017-02-13T00:30:41.193Z,938.71
2017-02-13T00:30:45.880Z,938.72
2017-02-13T00:30:50.599Z,938.72
2017-02-13T00:30:55.319Z,938.73
2017-02-13T00:31:00.069Z,938.71
2017-02-13T00:31:04.601Z,938.7
2017-02-13T00:31:09.311Z,938.71
2017-02-13T00:31:13.880Z,938.73
2017-02-13T00:31:18.586Z,938.7
2017-02-13T00:31:23.149Z,938.73
2017-02-13T00:31:27.878Z,938.71
2017-02-13T00:31:32.598Z,938.73
2017-02-13T00:31:37.322Z,938.69
2017-02-13T00:31:42.022Z,938.67
2017-02-13T00:31:46.752Z,938.68
2017-02-13T00:31:51.466Z,938.71
2017-02-13T00:31:56.171Z,938.7
2017-02-13T00:32:00.898Z,938.66
2017-02-13T00:32:05.354Z,938.7
2017-02-13T00:32:09.925Z,938.72
2017-02-13T00:32:14.473Z,938.66
2017-02-13T00:32:19.194Z,938.67
2017-02-13T00:32:23.632Z,938.73
2017-02-13T00:32:28.320Z,938.71
2017-02-13T00:32:33.101Z,938.69
2017-02-13T00:32:37.785Z,938.66
2017-02-13T00:32:42.345Z,938.74
2017-02-13T00:32:47.056Z,938.71
2017-02-13T00:32:51.778Z,938.67
2017-02-13T00:32:56.509Z,938.69
2017-02-13T00:33:01.194Z,938.67
2017-02-13T00:33:06.197Z,938.73
2017-02-13T00:33:10.751Z,938.72
2017-02-13T00:33:15.180Z,938.71
2017-02-13T00:33:19.742Z,938.65
2017-02-13T00:33:24.472Z,938.75
2017-02-13T00:33:29.185Z,938.71
2017-02-13T00:33:33.903Z,938.72
2017-02-13T00:33:38.633Z,938.72
2017-02-13T00:33:43.321Z,938.74
2017-02-13T00:33:48.276Z,938.72
2017-02-13T00:33:52.989Z,938.74
2017-02-13T00:33:57.698Z,938.73
2017-02-13T00:34:02.753Z,938.72
2017-02-13T00:34:07.162Z,938.73
2017-02-13T00:34:11.726Z,938.75
2017-02-13T00:34:16.168Z,938.75
2017-02-13T00:34:20.795Z,938.72
2017-02-13T00:34:25.371Z,938.72
2017-02-13T00:34:30.096Z,938.73
2017-02-13T00:34:34.502Z,938.7
2017-02-13T00:34:39.205Z,938.75
2017-02-13T00:34:43.769Z,938.69
2017-02-13T00:34:48.345Z,938.68
2017-02-13T00:34:53.067Z,938.71
2017-02-13T00:34:57.644Z,938.74
2017-02-13T00:35:02.204Z,938.74
2017-02-13T00:35:06.750Z,938.72
2017-02-13T00:35:11.438Z,938.73
2017-02-13T00:35:15.856Z,938.68
2017-02-13T00:35:20.566Z,938.69
2017-02-13T00:35:25.266Z,938.72
2017-02-13T00:35:29.982Z,938.71
2017-02-13T00:35:34.685Z,938.64
2017-02-13T00:35:39.389Z,938.73
2017-02-13T00:35:44.078Z,938.71
2017-02-13T00:35:48.778Z,938.71
2017-02-13T00:35:53.527Z,938.7
2017-02-13T00:35:58.276Z,938.7
2017-02-13T00:36:03.083Z,938.7
2017-02-13T00:36:07.509Z,938.73
2017-02-13T00:36:12.091Z,938.71
2017-02-13T00:36:16.672Z,938.74
2017-02-13T00:36:21.376Z,938.67
2017-02-13T00:36:26.079Z,938.67
2017-02-13T00:36:30.773Z,938.71
2017-02-13T00:36:35.501Z,938.69
2017-02-13T00:36:40.234Z,938.74
2017-02-13T00:36:44.940Z,938.63
2017-02-13T00:36:49.658Z,938.72
2017-02-13T00:36:54.332Z,938.7
2017-02-13T00:36:59.043Z,938.73
2017-02-13T00:37:03.789Z,938.72
2017-02-13T00:37:08.486Z,938.69
2017-02-13T00:37:13.027Z,938.72
2017-02-13T00:37:17.717Z,938.68
2017-02-13T00:37:22.294Z,938.7
2017-02-13T00:37:27.024Z,938.63
2017-02-13T00:37:31.766Z,938.7
2017-02-13T00:37:36.488Z,938.75
2017-02-13T00:37:41.195Z,938.7
2017-02-13T00:37:45.911Z,938.72
2017-02-13T00:37:50.625Z,938.65
2017-02-13T00:37:55.327Z,938.63
2017-02-13T00:37:59.934Z,938.66
2017-02-13T00:38:04.887Z,938.66
2017-02-13T00:38:09.164Z,938.73
2017-02-13T00:38:13.761Z,938.7
2017-02-13T00:38:18.489Z,938.69
2017-02-13T00:38:23.235Z,938.7
2017-02-13T00:38:27.939Z,938.64
2017-02-13T00:38:32.671Z,938.67
2017-02-13T00:38:37.389Z,938.62
2017-02-13T00:38:42.099Z,938.65
2017-02-13T00:38:46.804Z,938.68
2017-02-13T00:38:51.823Z,938.68
2017-02-13T00:38:56.260Z,938.68
2017-02-13T00:39:00.955Z,938.7
2017-02-13T00:39:05.716Z,938.68
2017-02-13T00:39:10.281Z,938.7
2017-02-13T00:39:14.685Z,938.7
2017-02-13T00:39:19.256Z,938.67
2017-02-13T00:39:23.946Z,938.72
2017-02-13T00:39:28.689Z,938.7
2017-02-13T00:39:33.239Z,938.71
2017-02-13T00:39:37.953Z,938.7
2017-02-13T00:39:42.515Z,938.7
2017-02-13T00:39:47.055Z,938.71
2017-02-13T00:39:51.752Z,938.69
2017-02-13T00:39:56.488Z,938.71
2017-02-13T00:40:01.202Z,938.71
2017-02-13T00:40:05.908Z,938.69
2017-02-13T00:40:10.471Z,938.61
2017-02-13T00:40:15.227Z,938.64
2017-02-13T00:40:19.932Z,938.67
2017-02-13T00:40:24.630Z,938.63
2017-02-13T00:40:29.328Z,938.65
2017-02-13T00:40:34.061Z,938.69
2017-02-13T00:40:38.754Z,938.71
2017-02-13T00:40:43.446Z,938.71
2017-02-13T00:40:48.142Z,938.7
2017-02-13T00:40:52.846Z,938.71
2017-02-13T00:40:57.531Z,938.67
2017-02-13T00:41:02.522Z,938.7
2017-02-13T00:41:07.240Z,938.68
2017-02-13T00:41:11.948Z,938.7
2017-02-13T00:41:16.512Z,938.72
2017-02-13T00:41:21.096Z,938.6
2017-02-13T00:41:25.805Z,938.62
2017-02-13T00:41:30.509Z,938.66
2017-02-13T00:41:35.043Z,938.68
2017-02-13T00:41:39.620Z,938.7
2017-02-13T00:41:44.334Z,938.71
2017-02-13T00:41:49.053Z,938.69
2017-02-13T00:41:53.791Z,938.67
2017-02-13T00:41:58.497Z,938.69
2017-02-13T00:42:03.215Z,938.7
2017-02-13T00:42:07.785Z,938.69
2017-02-13T00:42:12.403Z,938.69
2017-02-13T00:42:16.826Z,938.71
2017-02-13T00:42:21.395Z,938.69
2017-02-13T00:42:25.958Z,938.67
2017-02-13T00:42:30.669Z,938.67
2017-02-13T00:42:35.383Z,938.65
2017-02-13T00:42:40.108Z,938.67
2017-02-13T00:42:44.821Z,938.65
2017-02-13T00:42:49.535Z,938.68
2017-02-13T00:42:54.247Z,938.65
2017-02-13T00:42:58.941Z,938.66
2017-02-13T00:43:03.525Z,938.64
2017-02-13T00:43:08.236Z,938.68
2017-02-13T00:43:12.778Z,938.69
2017-02-13T00:43:17.362Z,938.67
2017-02-13T00:43:21.934Z,938.67
2017-02-13T00:43:26.490Z,938.66
2017-02-13T00:43:31.204Z,938.67
2017-02-13T00:43:35.936Z,938.67
2017-02-13T00:43:40.663Z,938.68
2017-02-13T00:43:45.358Z,938.67
2017-02-13T00:43:50.364Z,938.68
2017-02-13T00:43:55.076Z,938.71
2017-02-13T00:43:59.808Z,938.67
2017-02-13T00:44:04.719Z,938.71
2017-02-13T00:44:09.309Z,938.69
2017-02-13T00:44:13.856Z,938.69
2017-02-13T00:44:18.593Z,938.69
2017-02-13T00:44:23.138Z,938.69
2017-02-13T00:44:27.833Z,938.69
2017-02-13T00:44:32.547Z,938.7
2017-02-13T00:44:37.246Z,938.66
2017-02-13T00:44:41.790Z,938.7
2017-02-13T00:44:46.522Z,938.7
2017-02-13T00:44:51.056Z,938.71
2017-02-13T00:44:55.760Z,938.68
2017-02-13T00:45:00.491Z,938.69
2017-02-13T00:45:05.279Z,938.65
2017-02-13T00:45:09.853Z,938.66
2017-02-13T00:45:14.557Z,938.66
2017-02-13T00:45:19.266Z,938.65
2017-02-13T00:45:23.960Z,938.63
2017-02-13T00:45:28.708Z,938.66
2017-02-13T00:45:33.419Z,938.69
2017-02-13T00:45:38.124Z,938.68
2017-02-13T00:45:42.841Z,938.59
2017-02-13T00:45:47.564Z,938.65
2017-02-13T00:45:52.134Z,938.6
2017-02-13T00:45:56.882Z,938.64
2017-02-13T00:46:01.979Z,938.62
2017-02-13T00:46:06.714Z,938.65
2017-02-13T00:46:11.274Z,938.64
2017-02-13T00:46:16.019Z,938.65
2017-02-13T00:46:20.730Z,938.64
2017-02-13T00:46:25.432Z,938.67
2017-02-13T00:46:30.137Z,938.66
2017-02-13T00:46:34.853Z,938.68
2017-02-13T00:46:39.571Z,938.65
2017-02-13T00:46:44.283Z,938.64
2017-02-13T00:46:48.832Z,938.63
2017-02-13T00:46:53.576Z,938.65
2017-02-13T00:46:58.278Z,938.66
2017-02-13T00:47:03.319Z,938.59
2017-02-13T00:47:08.011Z,938.63
2017-02-13T00:47:12.568Z,938.63
2017-02-13T00:47:16.976Z,938.67
2017-02-13T00:47:21.529Z,938.67
2017-02-13T00:47:26.206Z,938.64
2017-02-13T00:47:30.966Z,938.66
2017-02-13T00:47:35.656Z,938.68
2017-02-13T00:47:40.217Z,938.64
2017-02-13T00:47:44.922Z,938.61
2017-02-13T00:47:49.641Z,938.68
2017-02-13T00:47:54.347Z,938.59
2017-02-13T00:47:59.055Z,938.66
2017-02-13T00:48:03.948Z,938.64
2017-02-13T00:48:08.341Z,938.68
2017-02-13T00:48:12.591Z,938.64
2017-02-13T00:48:17.297Z,938.65
2017-02-13T00:48:22.014Z,938.6
2017-02-13T00:48:26.728Z,938.65
2017-02-13T00:48:31.457Z,938.68
2017-02-13T00:48:36.027Z,938.66
2017-02-13T00:48:40.575Z,938.63
2017-02-13T00:48:45.267Z,938.63
2017-02-13T00:48:50.096Z,938.62
2017-02-13T00:48:54.824Z,938.67
2017-02-13T00:48:59.560Z,938.65
2017-02-13T00:49:04.268Z,938.62
2017-02-13T00:49:09.020Z,938.64
2017-02-13T00:49:13.731Z,938.59
2017-02-13T00:49:18.261Z,938.66
2017-02-13T00:49:22.980Z,938.63
2017-02-13T00:49:27.730Z,938.57
2017-02-13T00:49:32.440Z,938.59
2017-02-13T00:49:37.139Z,938.64
2017-02-13T00:49:41.892Z,938.64
2017-02-13T00:49:46.484Z,938.62
2017-02-13T00:49:51.028Z,938.63
2017-02-13T00:49:55.640Z,938.63
2017-02-13T00:50:00.403Z,938.65
2017-02-13T00:50:04.974Z,938.61
2017-02-13T00:50:09.387Z,938.66
2017-02-13T00:50:14.074Z,938.6
2017-02-13T00:50:18.793Z,938.68
2017-02-13T00:50:23.478Z,938.63
2017-02-13T00:50:28.244Z,938.65
2017-02-13T00:50:32.788Z,938.65
2017-02-13T00:50:37.496Z,938.61
2017-02-13T00:50:42.059Z,938.65
2017-02-13T00:50:46.762Z,938.67
2017-02-13T00:50:51.343Z,938.65
2017-02-13T00:50:55.894Z,938.68
2017-02-13T00:51:00.622Z,938.67
2017-02-13T00:51:05.194Z,938.66
2017-02-13T00:51:09.892Z,938.68
2017-02-13T00:51:14.606Z,938.59
2017-02-13T00:51:19.323Z,938.66
2017-02-13T00:51:23.906Z,938.67
2017-02-13T00:51:28.615Z,938.61
2017-02-13T00:51:33.347Z,938.65
2017-02-13T00:51:38.083Z,938.65
2017-02-13T00:51:42.816Z,938.66
2017-02-13T00:51:47.519Z,938.66
2017-02-13T00:51:52.242Z,938.66
2017-02-13T00:51:56.967Z,938.67
2017-02-13T00:52:01.653Z,938.72
2017-02-13T00:52:06.089Z,938.69
2017-02-13T00:52:10.517Z,938.7
2017-02-13T00:52:15.225Z,938.65
2017-02-13T00:52:19.937Z,938.65
2017-02-13T00:52:24.406Z,938.62
2017-02-13T00:52:29.108Z,938.67
2017-02-13T00:52:33.697Z,938.65
2017-02-13T00:52:38.415Z,938.63
2017-02-13T00:52:43.152Z,938.65
2017-02-13T00:52:47.727Z,938.67
2017-02-13T00:52:52.461Z,938.69
2017-02-13T00:52:57.017Z,938.7
2017-02-13T00:53:01.589Z,938.67
2017-02-13T00:53:06.416Z,938.63
2017-02-13T00:53:11.016Z,938.64
2017-02-13T00:53:15.589Z,938.68
2017-02-13T00:53:20.338Z,938.68
2017-02-13T00:53:25.047Z,938.64
2017-02-13T00:53:29.627Z,938.67
2017-02-13T00:53:34.328Z,938.68
2017-02-13T00:53:39.029Z,938.68
2017-02-13T00:53:43.734Z,938.7
2017-02-13T00:53:48.430Z,938.66
2017-02-13T00:53:53.430Z,938.64
2017-02-13T00:53:58.165Z,938.7
2017-02-13T00:54:02.643Z,938.66
2017-02-13T00:54:07.360Z,938.6
2017-02-13T00:54:11.769Z,938.69
2017-02-13T00:54:16.321Z,938.66
2017-02-13T00:54:20.874Z,938.64
2017-02-13T00:54:25.566Z,938.65
2017-02-13T00:54:30.244Z,938.62
2017-02-13T00:54:34.957Z,938.6
2017-02-13T00:54:39.667Z,938.64
2017-02-13T00:54:44.398Z,938.65
2017-02-13T00:54:49.098Z,938.65
2017-02-13T00:54:53.836Z,938.63
2017-02-13T00:54:58.549Z,938.66
2017-02-13T00:55:03.540Z,938.63
2017-02-13T00:55:08.244Z,938.71
2017-02-13T00:55:12.952Z,938.66
2017-02-13T00:55:17.525Z,938.67
2017-02-13T00:55:22.209Z,938.63
2017-02-13T00:55:26.777Z,938.64
2017-02-13T00:55:31.594Z,938.62
2017-02-13T00:55:36.369Z,938.63
2017-02-13T00:55:40.922Z,938.63
2017-02-13T00:55:45.648Z,938.64
2017-02-13T00:55:50.217Z,938.65
2017-02-13T00:55:54.933Z,938.68
2017-02-13T00:55:59.661Z,938.71
2017-02-13T00:56:04.373Z,938.66
2017-02-13T00:56:09.075Z,938.65
2017-02-13T00:56:13.640Z,938.65
2017-02-13T00:56:18.399Z,938.64
2017-02-13T00:56:23.121Z,938.64
2017-02-13T00:56:27.814Z,938.58
2017-02-13T00:56:32.505Z,938.65
2017-02-13T00:56:37.206Z,938.63
2017-02-13T00:56:41.917Z,938.6
2017-02-13T00:56:46.603Z,938.66
2017-02-13T00:56:51.167Z,938.63
2017-02-13T00:56:55.861Z,938.65
2017-02-13T00:57:00.590Z,938.63
2017-02-13T00:57:05.142Z,938.67
2017-02-13T00:57:09.554Z,938.65
2017-02-13T00:57:14.112Z,938.6
2017-02-13T00:57:18.841Z,938.68
2017-02-13T00:57:23.396Z,938.59
2017-02-13T00:57:27.958Z,938.64
2017-02-13T00:57:32.666Z,938.64
2017-02-13T00:57:37.354Z,938.62
2017-02-13T00:57:42.068Z,938.65
2017-02-13T00:57:46.762Z,938.65
2017-02-13T00:57:51.463Z,938.66
2017-02-13T00:57:56.167Z,938.63
2017-02-13T00:58:00.865Z,938.63
2017-02-13T00:58:05.722Z,938.6
2017-02-13T00:58:10.286Z,938.61
2017-02-13T00:58:14.990Z,938.63
2017-02-13T00:58:19.713Z,938.64
2017-02-13T00:58:24.408Z,938.6